createdAt,value
2019-04-05T00:02:04.432Z,27.43
2019-04-05T00:04:34.663Z,24.53
2019-04-05T00:07:04.937Z,26.10
2019-04-05T00:09:35.197Z,24.80
2019-04-05T00:12:05.404Z,24.90
2019-04-05T00:14:35.653Z,25.50
2019-04-05T00:17:05.868Z,26.33
2019-04-05T00:19:36.133Z,26.33
2019-04-05T00:22:06.399Z,24.43
2019-04-05T00:24:36.654Z,21.97
2019-04-05T00:27:06.807Z,20.50
2019-04-05T00:29:37.061Z,19.37
2019-04-05T00:32:07.285Z,19.07
2019-04-05T00:34:37.478Z,19.70
2019-04-05T00:37:07.728Z,18.87
2019-04-05T00:39:38.003Z,19.90
2019-04-05T00:42:08.344Z,18.30
2019-04-05T00:44:39.383Z,18.43
2019-04-05T00:47:09.715Z,16.97
2019-04-05T00:49:39.825Z,14.97
2019-04-05T00:52:10.074Z,13.47
2019-04-05T00:54:40.291Z,13.67
2019-04-05T00:57:10.589Z,12.13
2019-04-05T00:59:40.934Z,13.27
2019-04-05T01:02:11.093Z,11.80
2019-04-05T01:04:41.231Z,10.70
2019-04-05T01:07:11.373Z,12.53
2019-04-05T01:09:41.732Z,10.90
2019-04-05T01:12:12.373Z,9.93
2019-04-05T01:14:42.644Z,9.33
2019-04-05T01:17:24.439Z,10.37
2019-04-05T01:19:46.623Z,9.90
2019-04-05T01:22:18.129Z,9.20
2019-04-05T01:24:48.399Z,8.37
2019-04-05T01:27:18.535Z,9.23
2019-04-05T01:29:48.896Z,9.57
2019-04-05T01:32:19.139Z,7.90
2019-04-05T01:34:49.439Z,9.43
2019-04-05T01:37:19.699Z,9.33
2019-04-05T01:39:49.902Z,8.20
2019-04-05T01:42:20.231Z,8.40
2019-04-05T01:44:52.017Z,8.33
2019-04-05T01:47:23.290Z,8.93
2019-04-05T01:49:53.521Z,7.20
2019-04-05T01:52:24.016Z,7.70
2019-04-05T01:54:54.186Z,8.00
2019-04-05T01:57:24.446Z,7.73
2019-04-05T01:59:54.824Z,8.00
2019-04-05T02:02:25.062Z,8.33
2019-04-05T02:04:55.190Z,7.93
2019-04-05T02:07:25.489Z,9.67
2019-04-05T02:09:55.799Z,9.00
2019-04-05T02:12:26.158Z,9.43
2019-04-05T02:14:56.543Z,8.23
2019-04-05T02:17:26.654Z,8.07
2019-04-05T02:19:56.889Z,7.73
2019-04-05T02:22:27.215Z,7.90
2019-04-05T02:24:57.490Z,8.53
2019-04-05T02:27:27.771Z,8.93
2019-04-05T02:29:57.918Z,8.70
2019-04-05T02:32:28.135Z,8.87
2019-04-05T02:34:58.333Z,8.30
2019-04-05T02:37:28.736Z,7.77
2019-04-05T02:39:58.979Z,7.60
2019-04-05T02:42:30.403Z,9.00
2019-04-05T02:45:00.907Z,7.60
2019-04-05T02:47:31.565Z,8.50
2019-04-05T02:50:02.822Z,7.90
2019-04-05T02:52:33.118Z,7.97
2019-04-05T02:55:03.862Z,7.77
2019-04-05T02:57:35.407Z,7.50
2019-04-05T03:00:05.974Z,7.60
2019-04-05T03:02:37.102Z,7.07
2019-04-05T03:05:07.728Z,8.53
2019-04-05T03:07:38.198Z,7.70
2019-04-05T03:10:08.346Z,7.70
2019-04-05T03:12:38.718Z,7.67
2019-04-05T03:15:09.401Z,7.57
2019-04-05T03:17:39.592Z,8.23
2019-04-05T03:20:09.983Z,9.37
2019-04-05T03:22:40.616Z,10.30
2019-04-05T03:25:10.984Z,11.63
2019-04-05T03:27:42.503Z,12.53
2019-04-05T03:30:13.128Z,11.03
2019-04-05T03:32:43.876Z,12.10
2019-04-05T03:35:14.174Z,12.10
2019-04-05T03:37:44.452Z,11.90
2019-04-05T03:40:14.985Z,11.00
2019-04-05T03:42:45.472Z,13.23
2019-04-05T03:45:15.984Z,12.17
2019-04-05T03:47:50.374Z,11.83
2019-04-05T03:50:21.857Z,11.60
2019-04-05T03:52:53.205Z,12.30
2019-04-05T03:55:23.902Z,11.60
2019-04-05T03:57:56.380Z,12.63
2019-04-05T04:00:29.954Z,11.00
2019-04-05T04:03:00.423Z,11.30
2019-04-05T04:05:32.734Z,11.67
2019-04-05T04:08:03.094Z,9.87
2019-04-05T04:10:33.547Z,10.00
2019-04-05T04:13:03.911Z,9.70
2019-04-05T04:15:36.488Z,9.70
2019-04-05T04:18:07.149Z,9.57
2019-04-05T04:20:42.440Z,9.43
2019-04-05T04:23:15.633Z,10.73
2019-04-05T04:25:46.726Z,9.63
2019-04-05T04:28:17.459Z,9.23
2019-04-05T04:30:48.568Z,8.97
2019-04-05T04:33:20.113Z,10.47
2019-04-05T04:36:05.083Z,10.03
2019-04-05T04:38:46.013Z,9.20
2019-04-05T04:41:24.396Z,9.37
2019-04-05T04:44:09.279Z,9.83
2019-04-05T04:46:49.258Z,9.77
2019-04-05T04:49:21.334Z,9.23
2019-04-05T04:51:51.898Z,9.93
2019-04-05T04:54:23.093Z,9.40
2019-04-05T04:56:53.531Z,8.77
2019-04-05T04:59:23.802Z,9.03
2019-04-05T05:01:54.054Z,8.50
2019-04-05T05:04:24.734Z,8.63
2019-04-05T05:06:55.113Z,8.93
2019-04-05T05:09:25.560Z,9.73
2019-04-05T05:11:55.880Z,9.07
2019-04-05T05:14:26.225Z,9.40
2019-04-05T05:16:56.634Z,9.23
2019-04-05T05:19:27.010Z,9.30
2019-04-05T05:21:58.255Z,9.20
2019-04-05T05:24:30.536Z,9.97
2019-04-05T05:27:04.160Z,8.83
2019-04-05T05:29:34.493Z,9.00
2019-04-05T05:32:05.321Z,9.47
2019-04-05T05:34:36.022Z,8.97
2019-04-05T05:37:06.664Z,9.07
2019-04-05T05:39:36.943Z,9.50
2019-04-05T05:42:07.297Z,9.33
2019-04-05T05:44:37.490Z,8.93
2019-04-05T05:47:07.876Z,9.13
2019-04-05T05:49:38.263Z,9.50
2019-04-05T05:52:08.523Z,7.93
2019-04-05T05:54:38.890Z,8.77
2019-04-05T05:57:09.283Z,8.50
2019-04-05T05:59:39.608Z,9.30
2019-04-05T06:02:09.917Z,8.27
2019-04-05T06:04:40.135Z,8.77
2019-04-05T06:07:10.302Z,9.07
2019-04-05T06:09:40.474Z,8.10
2019-04-05T06:12:10.742Z,8.20
2019-04-05T06:14:40.962Z,7.40
2019-04-05T06:17:11.037Z,9.00
2019-04-05T06:19:41.281Z,8.10
2019-04-05T06:22:11.519Z,8.50
2019-04-05T06:24:41.824Z,7.40
2019-04-05T06:27:11.970Z,7.03
2019-04-05T06:29:42.187Z,8.03
2019-04-05T06:32:12.473Z,8.13
2019-04-05T06:34:42.617Z,7.80
2019-04-05T06:37:12.881Z,7.60
2019-04-05T06:39:43.194Z,7.47
2019-04-05T06:42:13.387Z,6.73
2019-04-05T06:44:43.602Z,8.07
2019-04-05T06:47:13.839Z,7.83
2019-04-05T06:49:44.222Z,6.57
2019-04-05T06:52:14.355Z,7.83
2019-04-05T06:54:44.584Z,6.90
2019-04-05T06:57:14.909Z,7.07
2019-04-05T06:59:46.139Z,6.67
2019-04-05T07:02:18.404Z,7.00
2019-04-05T07:04:48.145Z,7.00
2019-04-05T07:07:18.238Z,7.43
2019-04-05T07:09:48.411Z,7.93
2019-04-05T07:12:20.579Z,7.40
2019-04-05T07:14:50.477Z,8.27
2019-04-05T07:17:20.708Z,7.07
2019-04-05T07:19:50.986Z,7.33
2019-04-05T07:22:34.195Z,7.97
2019-04-05T07:24:53.043Z,6.90
2019-04-05T07:27:23.377Z,7.40
2019-04-05T07:29:53.599Z,8.20
2019-04-05T07:32:23.838Z,7.10
2019-04-05T07:34:54.092Z,7.03
2019-04-05T07:37:24.329Z,6.23
2019-04-05T07:39:54.486Z,6.63
2019-04-05T07:42:24.762Z,7.03
2019-04-05T07:44:54.989Z,7.00
2019-04-05T07:47:25.294Z,6.50
2019-04-05T07:49:55.513Z,7.00
2019-04-05T07:52:25.738Z,6.87
2019-04-05T07:54:56.036Z,6.40
2019-04-05T07:57:26.295Z,5.70
2019-04-05T07:59:56.394Z,6.77
2019-04-05T08:02:27.606Z,6.33
2019-04-05T08:04:57.823Z,6.03
2019-04-05T08:07:32.101Z,6.07
2019-04-05T08:10:03.112Z,5.63
2019-04-05T08:12:33.731Z,5.90
2019-04-05T08:15:03.974Z,5.80
2019-04-05T08:17:34.261Z,5.90
2019-04-05T08:20:04.468Z,5.77
2019-04-05T08:22:34.608Z,5.03
2019-04-05T08:25:05.068Z,5.47
2019-04-05T08:27:35.463Z,5.97
2019-04-05T08:30:05.878Z,6.27
2019-04-05T08:32:36.129Z,5.27
2019-04-05T08:35:06.362Z,5.47
2019-04-05T08:37:36.625Z,5.43
2019-04-05T08:40:06.830Z,4.60
2019-04-05T08:42:36.998Z,5.57
2019-04-05T08:45:07.354Z,5.70
2019-04-05T08:47:37.463Z,6.83
2019-04-05T08:50:07.735Z,6.13
2019-04-05T08:52:37.906Z,5.80
2019-04-05T08:55:08.248Z,4.60
2019-04-05T08:57:38.394Z,4.63
2019-04-05T09:00:09.057Z,4.93
2019-04-05T09:02:39.399Z,4.73
2019-04-05T09:05:10.802Z,5.57
2019-04-05T09:07:40.939Z,4.67
2019-04-05T09:10:11.257Z,4.77
2019-04-05T09:12:41.438Z,5.13
2019-04-05T09:15:11.715Z,4.10
2019-04-05T09:17:41.878Z,5.23
2019-04-05T09:20:12.105Z,4.77
2019-04-05T09:22:42.307Z,4.80
2019-04-05T09:25:12.629Z,4.80
2019-04-05T09:27:42.804Z,4.93
2019-04-05T09:30:13.226Z,4.40
2019-04-05T09:32:43.657Z,3.97
2019-04-05T09:35:13.777Z,4.40
2019-04-05T09:37:44.063Z,1.97
2019-04-05T09:40:14.478Z,2.90
2019-04-05T09:42:44.789Z,1.73
2019-04-05T09:45:15.074Z,2.10
2019-04-05T09:47:45.334Z,3.73
2019-04-05T09:50:15.682Z,2.00
2019-04-05T09:52:45.978Z,2.83
2019-04-05T09:55:16.344Z,2.53
2019-04-05T09:57:46.504Z,2.77
2019-04-05T10:00:22.368Z,2.87
2019-04-05T10:02:52.563Z,2.50
2019-04-05T10:05:22.830Z,2.40
2019-04-05T10:07:55.601Z,3.10
2019-04-05T10:10:25.982Z,2.57
2019-04-05T10:12:56.150Z,2.77
2019-04-05T10:15:26.385Z,3.47
2019-04-05T10:17:56.485Z,3.53
2019-04-05T10:20:26.729Z,3.57
2019-04-05T10:22:57.096Z,2.50
2019-04-05T10:25:27.432Z,3.33
2019-04-05T10:27:57.627Z,3.10
2019-04-05T10:30:27.859Z,3.10
2019-04-05T10:32:58.140Z,3.33
2019-04-05T10:35:28.290Z,2.93
2019-04-05T10:37:58.604Z,2.60
2019-04-05T10:40:28.891Z,2.87
2019-04-05T10:42:59.211Z,2.70
2019-04-05T10:45:29.453Z,3.00
2019-04-05T10:47:59.621Z,2.70
2019-04-05T10:50:30.003Z,3.10
2019-04-05T10:53:00.276Z,2.73
2019-04-05T10:55:30.479Z,2.70
2019-04-05T10:58:00.621Z,3.20
2019-04-05T11:00:30.815Z,2.73
2019-04-05T11:03:01.163Z,2.50
2019-04-05T11:05:31.259Z,2.00
2019-04-05T11:08:01.618Z,2.40
2019-04-05T11:10:32.733Z,2.70
2019-04-05T11:13:02.998Z,2.50
2019-04-05T11:15:33.245Z,2.60
2019-04-05T11:18:04.724Z,3.10
2019-04-05T11:20:35.094Z,3.13
2019-04-05T11:23:05.401Z,2.90
2019-04-05T11:25:35.609Z,2.73
2019-04-05T11:28:05.805Z,2.93
2019-04-05T11:30:46.177Z,2.83
2019-04-05T11:33:19.344Z,2.87
2019-04-05T11:35:48.524Z,2.97
2019-04-05T11:38:19.673Z,3.43
2019-04-05T11:40:50.547Z,2.57
2019-04-05T11:43:21.469Z,2.73
2019-04-05T11:45:52.393Z,3.10
2019-04-05T11:48:22.749Z,3.20
2019-04-05T11:50:52.978Z,2.87
2019-04-05T11:53:23.199Z,3.27
2019-04-05T11:55:53.462Z,2.90
2019-04-05T11:58:23.792Z,2.50
2019-04-05T12:01:02.523Z,2.50
2019-04-05T12:03:32.672Z,2.53
2019-04-05T12:06:02.697Z,2.33
2019-04-05T12:08:32.901Z,2.50
2019-04-05T12:11:03.393Z,2.50
2019-04-05T12:13:34.563Z,2.47
2019-04-05T12:16:06.163Z,2.60
2019-04-05T12:18:36.820Z,2.37
2019-04-05T12:21:07.131Z,2.33
2019-04-05T12:23:37.418Z,1.83
2019-04-05T12:26:07.758Z,1.90
2019-04-05T12:28:38.012Z,1.97
2019-04-05T12:31:08.404Z,1.53
2019-04-05T12:33:38.605Z,1.93
2019-04-05T12:36:08.870Z,2.30
2019-04-05T12:38:39.166Z,1.87
2019-04-05T12:41:11.055Z,2.30
2019-04-05T12:43:43.794Z,1.93
2019-04-05T12:46:15.883Z,2.10
2019-04-05T12:48:46.368Z,2.00
2019-04-05T12:51:16.719Z,1.80
2019-04-05T12:53:46.933Z,2.07
2019-04-05T12:56:17.224Z,1.83
2019-04-05T12:58:47.487Z,2.07
2019-04-05T13:01:17.593Z,1.80
2019-04-05T13:03:51.124Z,2.10
2019-04-05T13:06:19.803Z,1.70
2019-04-05T13:08:51.516Z,1.93
2019-04-05T13:11:25.932Z,2.00
2019-04-05T13:13:54.342Z,2.40
2019-04-05T13:16:26.614Z,1.73
2019-04-05T13:19:00.436Z,2.17
2019-04-05T13:21:32.131Z,4.37
2019-04-05T13:24:00.757Z,4.37
2019-04-05T13:26:30.979Z,4.00
2019-04-05T13:29:02.007Z,5.03
2019-04-05T13:31:32.234Z,4.50
2019-04-05T13:34:02.412Z,4.42
2019-04-05T13:36:32.683Z,3.90
2019-04-05T13:39:03.117Z,4.08
2019-04-05T13:41:33.306Z,4.35
2019-04-05T13:44:03.541Z,3.77
2019-04-05T13:46:33.821Z,2.87
2019-04-05T13:49:03.992Z,3.80
2019-04-05T13:51:34.260Z,3.60
2019-04-05T13:54:04.481Z,4.00
2019-04-05T13:56:34.747Z,3.65
2019-04-05T13:59:05.148Z,3.75
2019-04-05T14:01:35.190Z,3.45
2019-04-05T14:04:05.358Z,3.67
2019-04-05T14:06:35.646Z,4.37
2019-04-05T14:09:10.179Z,3.90
2019-04-05T14:11:39.476Z,3.58
2019-04-05T14:14:12.095Z,3.70
2019-04-05T14:16:42.983Z,3.85
2019-04-05T14:19:18.450Z,3.72
2019-04-05T14:21:47.778Z,3.80
2019-04-05T14:24:18.182Z,3.55
2019-04-05T14:26:48.372Z,4.85
2019-04-05T14:29:18.679Z,4.42
2019-04-05T14:31:48.857Z,4.70
2019-04-05T14:34:18.902Z,4.90
2019-04-05T14:36:50.049Z,5.22
2019-04-05T14:39:25.009Z,4.53
2019-04-05T14:41:55.229Z,4.60
2019-04-05T14:44:25.975Z,4.00
2019-04-05T14:46:58.050Z,4.22
2019-04-05T14:49:30.291Z,4.58
2019-04-05T14:52:01.237Z,4.37
2019-04-05T14:54:32.751Z,4.17
2019-04-05T14:57:05.732Z,4.20
2019-04-05T14:59:34.752Z,4.50
2019-04-05T15:02:06.981Z,4.62
2019-04-05T15:04:37.282Z,3.85
2019-04-05T15:07:07.610Z,4.42
2019-04-05T15:09:37.850Z,4.58
2019-04-05T15:12:08.052Z,4.40
2019-04-05T15:14:38.186Z,4.42
2019-04-05T15:17:08.416Z,4.90
2019-04-05T15:19:39.485Z,4.53
2019-04-05T15:22:11.670Z,9.50
2019-04-05T15:24:41.718Z,7.92
2019-04-05T15:27:11.953Z,4.90
2019-04-05T15:29:42.157Z,4.90
2019-04-05T15:32:12.422Z,4.60
2019-04-05T15:34:43.745Z,4.62
2019-04-05T15:37:16.069Z,3.98
2019-04-05T15:39:46.104Z,5.42
2019-04-05T15:42:16.283Z,5.90
2019-04-05T15:44:46.415Z,4.58
2019-04-05T15:47:17.334Z,4.40
2019-04-05T15:49:49.456Z,4.17
2019-04-05T15:52:19.461Z,5.20
2019-04-05T15:54:49.661Z,4.05
2019-04-05T15:57:19.978Z,5.17
2019-04-05T15:59:50.201Z,4.97
2019-04-05T16:02:20.466Z,4.85
2019-04-05T16:04:50.846Z,5.12
2019-04-05T16:07:20.962Z,5.33
2019-04-05T16:09:51.229Z,6.33
2019-04-05T16:12:21.831Z,5.70
2019-04-05T16:14:52.468Z,5.70
2019-04-05T16:17:23.257Z,5.90
2019-04-05T16:19:54.001Z,6.80
2019-04-05T16:22:31.330Z,7.20
2019-04-05T16:24:59.150Z,6.90
2019-04-05T16:27:31.038Z,6.87
2019-04-05T16:30:01.292Z,7.72
2019-04-05T16:32:32.476Z,7.50
2019-04-05T16:35:02.764Z,6.65
2019-04-05T16:37:32.882Z,6.40
2019-04-05T16:40:03.071Z,7.00
2019-04-05T16:42:33.374Z,6.62
2019-04-05T16:45:03.695Z,6.50
2019-04-05T16:47:33.914Z,6.90
2019-04-05T16:50:04.163Z,6.85
2019-04-05T16:52:44.163Z,6.58
2019-04-05T16:55:06.647Z,6.05
2019-04-05T16:57:36.857Z,6.72
2019-04-05T17:00:09.635Z,8.03
2019-04-05T17:02:39.917Z,7.78
2019-04-05T17:05:10.584Z,7.03
2019-04-05T17:07:45.035Z,7.58
2019-04-05T17:10:17.174Z,8.13
2019-04-05T17:12:49.450Z,7.22
2019-04-05T17:15:21.729Z,6.97
2019-04-05T17:17:54.337Z,8.05
2019-04-05T17:20:24.773Z,8.20
2019-04-05T17:22:58.333Z,8.08
2019-04-05T17:25:27.808Z,7.50
2019-04-05T17:27:58.053Z,7.03
2019-04-05T17:30:28.305Z,6.90
2019-04-05T17:32:58.489Z,7.40
2019-04-05T17:35:28.897Z,7.37
2019-04-05T17:38:00.940Z,8.00
2019-04-05T17:40:31.247Z,8.83
2019-04-05T17:43:01.544Z,11.93
2019-04-05T17:45:31.769Z,17.77
2019-04-05T17:48:01.908Z,8.87
2019-04-05T17:50:33.950Z,6.97
2019-04-05T17:53:12.671Z,6.23
2019-04-05T17:55:36.942Z,6.33
2019-04-05T17:58:07.346Z,6.20
2019-04-05T18:00:37.964Z,6.43
2019-04-05T18:03:08.303Z,7.33
2019-04-05T18:05:38.427Z,7.43
2019-04-05T18:08:08.614Z,7.80
2019-04-05T18:10:38.864Z,7.60
2019-04-05T18:13:08.994Z,7.67
2019-04-05T18:15:51.509Z,7.80
2019-04-05T18:18:11.166Z,6.80
2019-04-05T18:20:41.553Z,6.33
2019-04-05T18:23:24.239Z,6.80
2019-04-05T18:25:44.703Z,7.03
2019-04-05T18:28:14.965Z,6.63
2019-04-05T18:30:45.152Z,6.53
2019-04-05T18:33:15.415Z,6.90
2019-04-05T18:35:45.631Z,6.50
2019-04-05T18:38:15.799Z,6.90
2019-04-05T18:40:47.916Z,7.33
2019-04-05T18:43:18.109Z,12.13
2019-04-05T18:45:48.282Z,13.30
2019-04-05T18:48:18.504Z,10.63
2019-04-05T18:50:48.887Z,8.83
2019-04-05T18:53:19.082Z,7.27
2019-04-05T18:55:49.397Z,7.57
2019-04-05T18:58:19.925Z,7.27
2019-04-05T19:00:59.677Z,8.73
2019-04-05T19:03:30.248Z,7.30
2019-04-05T19:06:03.307Z,7.73
2019-04-05T19:08:39.442Z,6.33
2019-04-05T19:11:05.846Z,7.90
2019-04-05T19:13:35.950Z,7.93
2019-04-05T19:16:06.123Z,8.97
2019-04-05T19:18:36.442Z,9.83
2019-04-05T19:21:06.882Z,10.53
2019-04-05T19:23:49.996Z,8.27
2019-04-05T19:26:09.942Z,7.70
2019-04-05T19:28:40.111Z,8.10
2019-04-05T19:48:53.957Z,7.33
2019-04-05T19:51:24.072Z,7.60
2019-04-05T19:54:01.083Z,9.00
2019-04-05T19:56:26.165Z,10.20
2019-04-05T19:58:56.717Z,9.17
2019-04-05T20:01:27.164Z,10.37
2019-04-05T20:03:57.710Z,9.73
2019-04-05T20:06:28.061Z,10.57
2019-04-05T20:08:58.378Z,11.27
2019-04-05T20:11:28.743Z,10.00
2019-04-05T20:13:58.930Z,11.33
2019-04-05T20:16:29.266Z,10.87
2019-04-05T20:18:59.564Z,11.50
2019-04-05T20:21:29.857Z,11.43
2019-04-05T20:24:03.456Z,12.60
2019-04-05T20:26:32.159Z,13.03
2019-04-05T20:29:03.274Z,13.57
2019-04-05T20:31:33.461Z,11.97
2019-04-05T20:34:03.697Z,12.33
2019-04-05T20:36:33.855Z,12.20
2019-04-05T20:39:05.177Z,11.93
2019-04-05T20:41:35.462Z,13.30
2019-04-05T20:44:05.800Z,14.00
2019-04-05T20:46:35.962Z,12.30
2019-04-05T20:49:06.237Z,14.07
2019-04-05T20:51:36.544Z,12.13
2019-04-05T20:54:06.655Z,12.13
2019-04-05T20:56:36.790Z,12.83
2019-04-05T20:59:07.050Z,11.93
2019-04-05T21:01:37.344Z,12.70
2019-04-05T21:04:07.721Z,12.67
2019-04-05T21:06:37.839Z,12.67
2019-04-05T21:09:08.807Z,12.40
2019-04-05T21:11:39.229Z,13.07
2019-04-05T21:14:09.370Z,12.70
2019-04-05T21:16:39.598Z,14.83
2019-04-05T21:19:09.904Z,14.37
2019-04-05T21:21:40.185Z,15.47
2019-04-05T21:24:10.402Z,15.30
2019-04-05T21:26:40.725Z,16.50
2019-04-05T21:29:11.814Z,12.70
2019-04-05T21:31:42.036Z,6.80
2019-04-05T21:34:12.269Z,5.70
2019-04-05T21:36:42.533Z,4.87
2019-04-05T21:39:12.613Z,4.63
2019-04-05T21:41:42.853Z,3.30
2019-04-05T21:44:13.081Z,3.43
2019-04-05T21:46:43.374Z,3.33
2019-04-05T21:49:13.731Z,2.50
2019-04-05T21:51:43.966Z,2.40
2019-04-05T21:54:14.170Z,2.50
2019-04-05T21:56:45.553Z,2.40
2019-04-05T21:59:16.018Z,2.27
2019-04-05T22:01:46.364Z,2.53
2019-04-05T22:04:16.538Z,2.60
2019-04-05T22:06:46.684Z,1.97
2019-04-05T22:09:16.949Z,1.93
2019-04-05T22:11:47.213Z,2.10
2019-04-05T22:14:17.333Z,2.33
2019-04-05T22:16:47.567Z,2.87
2019-04-05T22:19:17.762Z,2.13
2019-04-05T22:21:47.898Z,2.30
2019-04-05T22:24:18.151Z,2.63
2019-04-05T22:26:48.442Z,2.00
2019-04-05T22:29:18.654Z,2.60
2019-04-05T22:31:49.702Z,2.97
2019-04-05T22:34:19.869Z,2.70
2019-04-05T22:36:49.903Z,2.60
2019-04-05T22:39:21.552Z,2.70
2019-04-05T22:41:52.115Z,2.50
2019-04-05T22:44:22.342Z,2.90
2019-04-05T22:46:52.538Z,3.17
2019-04-05T22:49:22.774Z,2.77
2019-04-05T22:51:52.987Z,2.10
2019-04-05T22:54:23.111Z,2.30
2019-04-05T22:56:53.337Z,2.70
2019-04-05T22:59:23.502Z,2.43
2019-04-05T23:01:53.903Z,2.93
2019-04-05T23:04:24.159Z,3.30
2019-04-05T23:06:54.286Z,2.83
2019-04-05T23:09:24.511Z,2.90
2019-04-05T23:11:54.748Z,2.97
2019-04-05T23:14:24.906Z,2.70
2019-04-05T23:16:55.173Z,3.17
2019-04-05T23:19:25.362Z,2.43
2019-04-05T23:21:55.554Z,2.80
2019-04-05T23:24:25.841Z,3.00
2019-04-05T23:26:56.314Z,3.67
2019-04-05T23:29:26.529Z,3.57
2019-04-05T23:31:57.558Z,3.93
2019-04-05T23:34:27.850Z,3.50
2019-04-05T23:36:58.126Z,3.97
2019-04-05T23:39:28.433Z,3.13
2019-04-05T23:41:58.857Z,3.20
2019-04-05T23:44:29.200Z,3.90
2019-04-05T23:46:59.421Z,3.57
2019-04-05T23:49:29.739Z,3.33
2019-04-05T23:51:59.843Z,3.50
2019-04-05T23:54:29.972Z,3.33
2019-04-05T23:57:00.304Z,3.20
2019-04-05T23:59:30.570Z,3.73
